sensor_id;sensor_type;location;lat;lon;timestamp;pressure;altitude;pressure_sealevel;temperature;humidity
51617;BME280;37697;52.588;13.394;2023-05-09T00:04:49;101949.42;;;9.18;52.65
51617;BME280;37697;52.588;13.394;2023-05-09T00:09:55;101957.55;;;9.17;52.83
51617;BME280;37697;52.588;13.394;2023-05-09T00:15:01;101956.88;;;9.14;52.95
51617;BME280;37697;52.588;13.394;2023-05-09T00:20:10;101960.64;;;9.11;53.32
51617;BME280;37697;52.588;13.394;2023-05-09T00:25:16;101959.29;;;9.07;53.46
51617;BME280;37697;52.588;13.394;2023-05-09T00:30:22;101959.54;;;9.03;53.33
51617;BME280;37697;52.588;13.394;2023-05-09T00:35:27;101960.77;;;8.99;53.66
51617;BME280;37697;52.588;13.394;2023-05-09T00:40:33;101965.45;;;8.94;53.84
51617;BME280;37697;52.588;13.394;2023-05-09T00:45:39;101963.39;;;8.89;54.09
51617;BME280;37697;52.588;13.394;2023-05-09T00:50:44;101965.33;;;8.84;54.18
51617;BME280;37697;52.588;13.394;2023-05-09T00:55:51;101961.70;;;8.79;54.26
51617;BME280;37697;52.588;13.394;2023-05-09T01:00:57;101949.90;;;8.73;54.10
51617;BME280;37697;52.588;13.394;2023-05-09T01:06:08;101943.98;;;8.68;54.32
51617;BME280;37697;52.588;13.394;2023-05-09T01:11:21;101938.60;;;8.63;54.61
51617;BME280;37697;52.588;13.394;2023-05-09T01:16:37;101934.32;;;8.57;54.58
51617;BME280;37697;52.588;13.394;2023-05-09T01:21:44;101932.52;;;8.51;54.72
51617;BME280;37697;52.588;13.394;2023-05-09T01:27:05;101931.38;;;8.46;55.07
51617;BME280;37697;52.588;13.394;2023-05-09T01:32:18;101936.02;;;8.42;54.91
51617;BME280;37697;52.588;13.394;2023-05-09T01:37:29;101927.79;;;8.38;55.29
51617;BME280;37697;52.588;13.394;2023-05-09T01:42:39;101925.04;;;8.31;55.10
51617;BME280;37697;52.588;13.394;2023-05-09T01:47:47;101919.16;;;8.26;55.09
51617;BME280;37697;52.588;13.394;2023-05-09T01:52:55;101916.86;;;8.21;55.23
51617;BME280;37697;52.588;13.394;2023-05-09T01:58:03;101920.27;;;8.16;55.05
51617;BME280;37697;52.588;13.394;2023-05-09T02:03:10;101919.72;;;8.10;55.46
51617;BME280;37697;52.588;13.394;2023-05-09T02:08:18;101923.08;;;8.06;55.44
51617;BME280;37697;52.588;13.394;2023-05-09T02:13:25;101924.34;;;8.02;55.41
51617;BME280;37697;52.588;13.394;2023-05-09T02:18:31;101918.99;;;8.00;55.49
51617;BME280;37697;52.588;13.394;2023-05-09T02:23:36;101921.05;;;8.02;55.24
51617;BME280;37697;52.588;13.394;2023-05-09T02:28:43;101921.66;;;8.02;55.00
51617;BME280;37697;52.588;13.394;2023-05-09T02:33:49;101920.11;;;8.02;54.87
51617;BME280;37697;52.588;13.394;2023-05-09T02:38:57;101921.16;;;8.02;54.72
51617;BME280;37697;52.588;13.394;2023-05-09T02:44:02;101923.48;;;8.03;54.53
51617;BME280;37697;52.588;13.394;2023-05-09T02:49:08;101924.85;;;8.03;54.26
51617;BME280;37697;52.588;13.394;2023-05-09T02:54:18;101922.97;;;8.02;54.06
51617;BME280;37697;52.588;13.394;2023-05-09T02:59:24;101918.56;;;8.01;53.85
51617;BME280;37697;52.588;13.394;2023-05-09T03:04:29;101920.15;;;8.00;53.94
51617;BME280;37697;52.588;13.394;2023-05-09T03:09:35;101919.71;;;7.99;53.76
51617;BME280;37697;52.588;13.394;2023-05-09T03:14:41;101914.32;;;7.98;53.72
51617;BME280;37697;52.588;13.394;2023-05-09T03:19:47;101911.11;;;7.95;53.79
51617;BME280;37697;52.588;13.394;2023-05-09T03:24:52;101907.23;;;7.92;53.70
51617;BME280;37697;52.588;13.394;2023-05-09T03:29:58;101906.82;;;7.90;53.73
51617;BME280;37697;52.588;13.394;2023-05-09T03:35:04;101903.78;;;7.88;53.93
51617;BME280;37697;52.588;13.394;2023-05-09T03:40:11;101904.70;;;7.86;53.76
51617;BME280;37697;52.588;13.394;2023-05-09T03:45:16;101902.73;;;7.83;54.19
51617;BME280;37697;52.588;13.394;2023-05-09T03:50:22;101902.84;;;7.78;54.23
51617;BME280;37697;52.588;13.394;2023-05-09T03:55:27;101900.66;;;7.74;54.31
51617;BME280;37697;52.588;13.394;2023-05-09T04:00:32;101895.41;;;7.73;54.53
51617;BME280;37697;52.588;13.394;2023-05-09T04:05:38;101891.48;;;7.73;54.49
51617;BME280;37697;52.588;13.394;2023-05-09T04:10:43;101888.33;;;7.75;54.58
51617;BME280;37697;52.588;13.394;2023-05-09T04:15:48;101888.72;;;7.76;54.74
51617;BME280;37697;52.588;13.394;2023-05-09T04:20:55;101887.41;;;7.76;54.80
51617;BME280;37697;52.588;13.394;2023-05-09T04:26:00;101889.42;;;7.75;54.93
51617;BME280;37697;52.588;13.394;2023-05-09T04:31:05;101892.58;;;7.74;54.86
51617;BME280;37697;52.588;13.394;2023-05-09T04:36:11;101892.52;;;7.78;55.13
51617;BME280;37697;52.588;13.394;2023-05-09T04:41:17;101889.13;;;8.54;53.95
51617;BME280;37697;52.588;13.394;2023-05-09T04:46:22;101889.59;;;9.45;52.92
51617;BME280;37697;52.588;13.394;2023-05-09T04:51:29;101891.80;;;9.70;52.40
51617;BME280;37697;52.588;13.394;2023-05-09T04:56:35;101890.92;;;10.36;51.53
51617;BME280;37697;52.588;13.394;2023-05-09T05:01:41;101882.52;;;10.57;50.92
51617;BME280;37697;52.588;13.394;2023-05-09T05:06:46;101882.73;;;10.63;50.73
51617;BME280;37697;52.588;13.394;2023-05-09T05:11:51;101879.58;;;10.82;50.63
51617;BME280;37697;52.588;13.394;2023-05-09T05:17:06;101879.50;;;11.05;49.64
51617;BME280;37697;52.588;13.394;2023-05-09T05:22:12;101879.39;;;11.21;49.69
51617;BME280;37697;52.588;13.394;2023-05-09T05:27:17;101871.81;;;11.13;49.68
51617;BME280;37697;52.588;13.394;2023-05-09T05:32:23;101871.14;;;11.12;49.67
51617;BME280;37697;52.588;13.394;2023-05-09T05:37:28;101870.45;;;11.26;49.75
51617;BME280;37697;52.588;13.394;2023-05-09T05:42:34;101862.88;;;11.47;49.43
51617;BME280;37697;52.588;13.394;2023-05-09T05:47:40;101862.43;;;11.85;48.62
51617;BME280;37697;52.588;13.394;2023-05-09T05:52:45;101855.17;;;12.11;48.12
51617;BME280;37697;52.588;13.394;2023-05-09T05:57:51;101844.45;;;12.19;47.73
51617;BME280;37697;52.588;13.394;2023-05-09T06:02:56;101834.78;;;12.13;48.05
51617;BME280;37697;52.588;13.394;2023-05-09T06:08:02;101830.90;;;12.14;48.15
51617;BME280;37697;52.588;13.394;2023-05-09T06:13:07;101821.84;;;12.16;47.68
51617;BME280;37697;52.588;13.394;2023-05-09T06:18:13;101819.44;;;12.19;47.24
51617;BME280;37697;52.588;13.394;2023-05-09T06:23:18;101817.81;;;12.22;46.80
51617;BME280;37697;52.588;13.394;2023-05-09T06:28:29;101808.67;;;12.38;46.78
51617;BME280;37697;52.588;13.394;2023-05-09T06:33:34;101803.04;;;12.57;46.26
51617;BME280;37697;52.588;13.394;2023-05-09T06:38:40;101797.58;;;12.73;45.71
51617;BME280;37697;52.588;13.394;2023-05-09T06:43:45;101788.77;;;12.75;45.31
51617;BME280;37697;52.588;13.394;2023-05-09T06:48:50;101780.21;;;12.83;45.83
51617;BME280;37697;52.588;13.394;2023-05-09T06:53:56;101771.16;;;12.97;45.58
51617;BME280;37697;52.588;13.394;2023-05-09T06:59:01;101775.16;;;13.09;44.74
51617;BME280;37697;52.588;13.394;2023-05-09T07:04:07;101769.54;;;13.22;44.33
51617;BME280;37697;52.588;13.394;2023-05-09T07:09:12;101757.20;;;13.32;45.13
51617;BME280;37697;52.588;13.394;2023-05-09T07:14:21;101747.91;;;13.48;44.52
51617;BME280;37697;52.588;13.394;2023-05-09T07:19:27;101739.38;;;13.49;44.60
51617;BME280;37697;52.588;13.394;2023-05-09T07:24:32;101732.90;;;13.77;44.19
51617;BME280;37697;52.588;13.394;2023-05-09T07:29:38;101726.08;;;13.82;43.28
51617;BME280;37697;52.588;13.394;2023-05-09T07:34:43;101710.39;;;13.77;42.99
51617;BME280;37697;52.588;13.394;2023-05-09T07:39:48;101709.91;;;14.00;43.03
51617;BME280;37697;52.588;13.394;2023-05-09T07:44:54;101702.53;;;14.13;41.37
51617;BME280;37697;52.588;13.394;2023-05-09T07:49:59;101695.06;;;14.28;41.33
51617;BME280;37697;52.588;13.394;2023-05-09T07:55:06;101688.50;;;14.71;41.20
51617;BME280;37697;52.588;13.394;2023-05-09T08:00:13;101688.40;;;14.92;39.17
51617;BME280;37697;52.588;13.394;2023-05-09T08:05:19;101677.59;;;15.05;39.42
51617;BME280;37697;52.588;13.394;2023-05-09T08:10:25;101674.98;;;15.19;39.16
51617;BME280;37697;52.588;13.394;2023-05-09T08:15:34;101664.95;;;15.29;38.61
51617;BME280;37697;52.588;13.394;2023-05-09T08:20:40;101659.59;;;15.49;38.44
51617;BME280;37697;52.588;13.394;2023-05-09T08:25:45;101656.82;;;15.77;38.47
51617;BME280;37697;52.588;13.394;2023-05-09T08:30:50;101652.88;;;16.16;38.70
51617;BME280;37697;52.588;13.394;2023-05-09T08:35:56;101656.48;;;16.39;36.74
51617;BME280;37697;52.588;13.394;2023-05-09T08:41:02;101648.69;;;16.33;35.92
51617;BME280;37697;52.588;13.394;2023-05-09T08:46:09;101648.54;;;16.40;36.49
51617;BME280;37697;52.588;13.394;2023-05-09T08:51:15;101651.23;;;16.53;36.63
51617;BME280;37697;52.588;13.394;2023-05-09T08:56:22;101646.52;;;16.60;35.73
51617;BME280;37697;52.588;13.394;2023-05-09T09:01:27;101641.26;;;16.70;36.61
51617;BME280;37697;52.588;13.394;2023-05-09T09:06:34;101642.48;;;16.90;35.78
51617;BME280;37697;52.588;13.394;2023-05-09T09:11:40;101639.77;;;16.83;34.65
51617;BME280;37697;52.588;13.394;2023-05-09T09:16:47;101631.84;;;16.76;35.26
51617;BME280;37697;52.588;13.394;2023-05-09T09:21:54;101627.39;;;16.88;35.04
51617;BME280;37697;52.588;13.394;2023-05-09T09:27:05;101616.23;;;16.96;34.90
51617;BME280;37697;52.588;13.394;2023-05-09T09:32:11;101615.03;;;17.12;34.76
51617;BME280;37697;52.588;13.394;2023-05-09T09:37:23;101614.84;;;17.14;34.33
51617;BME280;37697;52.588;13.394;2023-05-09T09:42:40;101602.79;;;17.31;34.74
51617;BME280;37697;52.588;13.394;2023-05-09T09:47:48;101589.45;;;17.45;34.62
51617;BME280;37697;52.588;13.394;2023-05-09T09:52:55;101575.38;;;17.69;34.94
51617;BME280;37697;52.588;13.394;2023-05-09T09:58:01;101572.83;;;17.88;34.12
51617;BME280;37697;52.588;13.394;2023-05-09T10:03:12;101560.41;;;17.98;34.28
51617;BME280;37697;52.588;13.394;2023-05-09T10:08:18;101554.70;;;18.19;34.13
51617;BME280;37697;52.588;13.394;2023-05-09T10:13:23;101555.08;;;18.42;33.85
51617;BME280;37697;52.588;13.394;2023-05-09T10:18:30;101553.79;;;18.48;32.38
51617;BME280;37697;52.588;13.394;2023-05-09T10:23:37;101546.61;;;18.35;31.71
51617;BME280;37697;52.588;13.394;2023-05-09T10:28:46;101535.89;;;18.30;31.91
51617;BME280;37697;52.588;13.394;2023-05-09T10:33:54;101538.12;;;18.36;31.99
51617;BME280;37697;52.588;13.394;2023-05-09T10:39:01;101519.70;;;18.42;31.42
51617;BME280;37697;52.588;13.394;2023-05-09T10:44:06;101524.23;;;18.46;31.08
51617;BME280;37697;52.588;13.394;2023-05-09T10:49:12;101519.52;;;18.41;30.34
51617;BME280;37697;52.588;13.394;2023-05-09T10:54:26;101510.12;;;18.39;30.80
51617;BME280;37697;52.588;13.394;2023-05-09T10:59:37;101504.81;;;18.63;31.82
51617;BME280;37697;52.588;13.394;2023-05-09T11:04:45;101501.52;;;18.87;31.16
51617;BME280;37697;52.588;13.394;2023-05-09T11:09:52;101490.60;;;18.89;30.66
51617;BME280;37697;52.588;13.394;2023-05-09T11:15:12;101481.39;;;18.95;30.45
51617;BME280;37697;52.588;13.394;2023-05-09T11:20:18;101466.86;;;18.92;30.52
51617;BME280;37697;52.588;13.394;2023-05-09T11:25:32;101455.81;;;19.02;30.49
51617;BME280;37697;52.588;13.394;2023-05-09T11:30:41;101450.94;;;19.15;30.85
51617;BME280;37697;52.588;13.394;2023-05-09T11:35:48;101445.73;;;19.40;30.53
51617;BME280;37697;52.588;13.394;2023-05-09T11:41:14;101435.27;;;19.39;30.11
51617;BME280;37697;52.588;13.394;2023-05-09T11:46:20;101425.95;;;19.52;30.71
51617;BME280;37697;52.588;13.394;2023-05-09T11:51:25;101414.20;;;19.61;30.49
51617;BME280;37697;52.588;13.394;2023-05-09T11:56:31;101409.81;;;19.73;30.51
51617;BME280;37697;52.588;13.394;2023-05-09T12:01:37;101400.27;;;19.79;30.30
51617;BME280;37697;52.588;13.394;2023-05-09T12:06:47;101392.16;;;19.95;29.66
51617;BME280;37697;52.588;13.394;2023-05-09T12:11:53;101385.80;;;20.12;29.60
51617;BME280;37697;52.588;13.394;2023-05-09T12:16:59;101373.01;;;20.24;29.31
51617;BME280;37697;52.588;13.394;2023-05-09T12:22:05;101366.23;;;20.25;28.78
51617;BME280;37697;52.588;13.394;2023-05-09T12:27:11;101351.98;;;20.24;28.75
51617;BME280;37697;52.588;13.394;2023-05-09T12:32:16;101336.52;;;20.25;29.40
51617;BME280;37697;52.588;13.394;2023-05-09T12:37:22;101331.05;;;20.44;29.02
51617;BME280;37697;52.588;13.394;2023-05-09T12:42:29;101327.89;;;20.45;28.68
51617;BME280;37697;52.588;13.394;2023-05-09T12:47:34;101324.59;;;20.41;27.87
51617;BME280;37697;52.588;13.394;2023-05-09T12:52:47;101319.15;;;20.30;28.54
51617;BME280;37697;52.588;13.394;2023-05-09T12:58:08;101311.31;;;20.47;28.85
51617;BME280;37697;52.588;13.394;2023-05-09T13:03:24;101313.53;;;20.52;28.13
51617;BME280;37697;52.588;13.394;2023-05-09T13:08:30;101306.37;;;20.48;28.29
51617;BME280;37697;52.588;13.394;2023-05-09T13:13:36;101306.73;;;20.34;28.05
51617;BME280;37697;52.588;13.394;2023-05-09T13:18:41;101295.48;;;20.32;28.41
51617;BME280;37697;52.588;13.394;2023-05-09T13:23:47;101286.23;;;20.27;28.18
51617;BME280;37697;52.588;13.394;2023-05-09T13:28:54;101277.30;;;20.25;28.56
51617;BME280;37697;52.588;13.394;2023-05-09T13:34:00;101263.64;;;20.36;28.51
51617;BME280;37697;52.588;13.394;2023-05-09T13:39:05;101248.73;;;20.38;28.56
51617;BME280;37697;52.588;13.394;2023-05-09T13:44:10;101245.80;;;20.39;28.94
51617;BME280;37697;52.588;13.394;2023-05-09T13:49:16;101238.88;;;20.34;28.62
51617;BME280;37697;52.588;13.394;2023-05-09T13:54:23;101229.69;;;20.22;28.73
51617;BME280;37697;52.588;13.394;2023-05-09T13:59:29;101218.59;;;20.05;28.93
51617;BME280;37697;52.588;13.394;2023-05-09T14:04:35;101203.73;;;20.04;29.03
51617;BME280;37697;52.588;13.394;2023-05-09T14:09:40;101201.70;;;19.98;28.81
51617;BME280;37697;52.588;13.394;2023-05-09T14:14:46;101184.18;;;19.96;29.10
51617;BME280;37697;52.588;13.394;2023-05-09T14:19:51;101178.10;;;20.00;29.31
51617;BME280;37697;52.588;13.394;2023-05-09T14:24:57;101179.27;;;19.95;28.85
51617;BME280;37697;52.588;13.394;2023-05-09T14:30:03;101166.67;;;19.82;28.94
51617;BME280;37697;52.588;13.394;2023-05-09T14:35:09;101169.41;;;19.80;28.81
51617;BME280;37697;52.588;13.394;2023-05-09T14:40:15;101150.38;;;19.78;29.57
51617;BME280;37697;52.588;13.394;2023-05-09T14:45:21;101148.01;;;19.85;29.33
51617;BME280;37697;52.588;13.394;2023-05-09T14:50:26;101143.38;;;19.77;29.11
51617;BME280;37697;52.588;13.394;2023-05-09T14:55:31;101132.75;;;19.60;29.20
51617;BME280;37697;52.588;13.394;2023-05-09T15:00:37;101134.00;;;19.56;29.11
51617;BME280;37697;52.588;13.394;2023-05-09T15:05:43;101128.53;;;19.55;29.21
51617;BME280;37697;52.588;13.394;2023-05-09T15:10:49;101120.29;;;19.57;29.47
51617;BME280;37697;52.588;13.394;2023-05-09T15:15:55;101106.27;;;19.49;29.35
51617;BME280;37697;52.588;13.394;2023-05-09T15:21:01;101099.48;;;19.44;29.60
51617;BME280;37697;52.588;13.394;2023-05-09T15:26:07;101092.45;;;19.43;29.81
51617;BME280;37697;52.588;13.394;2023-05-09T15:31:13;101085.04;;;19.35;29.63
51617;BME280;37697;52.588;13.394;2023-05-09T15:36:18;101080.43;;;19.24;30.25
51617;BME280;37697;52.588;13.394;2023-05-09T15:41:24;101072.15;;;19.23;30.11
51617;BME280;37697;52.588;13.394;2023-05-09T15:46:29;101071.86;;;19.18;30.10
51617;BME280;37697;52.588;13.394;2023-05-09T15:51:35;101078.27;;;19.19;30.32
51617;BME280;37697;52.588;13.394;2023-05-09T15:56:40;101071.73;;;19.17;30.77
51617;BME280;37697;52.588;13.394;2023-05-09T16:01:46;101063.62;;;19.17;31.04
51617;BME280;37697;52.588;13.394;2023-05-09T16:06:51;101057.49;;;19.12;30.65
51617;BME280;37697;52.588;13.394;2023-05-09T16:11:57;101054.52;;;19.03;30.41
51617;BME280;37697;52.588;13.394;2023-05-09T16:17:02;101052.80;;;18.98;30.22
51617;BME280;37697;52.588;13.394;2023-05-09T16:22:08;101042.41;;;18.95;30.42
51617;BME280;37697;52.588;13.394;2023-05-09T16:27:14;101040.91;;;18.90;30.70
51617;BME280;37697;52.588;13.394;2023-05-09T16:32:19;101038.16;;;18.89;30.88
51617;BME280;37697;52.588;13.394;2023-05-09T16:37:25;101031.83;;;18.88;30.71
51617;BME280;37697;52.588;13.394;2023-05-09T16:42:33;101024.30;;;18.84;30.86
51617;BME280;37697;52.588;13.394;2023-05-09T16:47:38;101015.98;;;18.79;31.08
51617;BME280;37697;52.588;13.394;2023-05-09T16:52:44;101013.08;;;18.69;31.26
51617;BME280;37697;52.588;13.394;2023-05-09T16:57:49;101011.18;;;18.57;31.53
51617;BME280;37697;52.588;13.394;2023-05-09T17:02:54;101009.76;;;18.47;31.93
51617;BME280;37697;52.588;13.394;2023-05-09T17:08:00;101005.27;;;18.38;31.81
51617;BME280;37697;52.588;13.394;2023-05-09T17:13:06;101001.71;;;18.29;31.95
51617;BME280;37697;52.588;13.394;2023-05-09T17:18:13;101004.50;;;18.22;32.38
51617;BME280;37697;52.588;13.394;2023-05-09T17:23:33;100996.95;;;18.10;32.63
51617;BME280;37697;52.588;13.394;2023-05-09T17:28:39;100997.01;;;17.99;32.68
51617;BME280;37697;52.588;13.394;2023-05-09T17:33:53;100993.11;;;17.85;32.92
51617;BME280;37697;52.588;13.394;2023-05-09T17:39:09;100994.75;;;17.73;32.85
51617;BME280;37697;52.588;13.394;2023-05-09T17:44:35;100992.66;;;17.61;33.01
51617;BME280;37697;52.588;13.394;2023-05-09T17:50:01;100989.23;;;17.50;33.23
51617;BME280;37697;52.588;13.394;2023-05-09T17:55:27;100983.57;;;17.37;33.49
51617;BME280;37697;52.588;13.394;2023-05-09T18:00:54;100981.42;;;17.26;33.83
51617;BME280;37697;52.588;13.394;2023-05-09T18:06:20;100978.58;;;17.13;34.00
51617;BME280;37697;52.588;13.394;2023-05-09T18:11:45;100976.72;;;17.01;34.31
51617;BME280;37697;52.588;13.394;2023-05-09T18:17:12;100974.20;;;16.89;34.62
51617;BME280;37697;52.588;13.394;2023-05-09T18:22:37;100966.88;;;16.76;34.80
51617;BME280;37697;52.588;13.394;2023-05-09T18:28:04;100961.77;;;16.63;35.06
51617;BME280;37697;52.588;13.394;2023-05-09T18:33:30;100963.77;;;16.53;35.42
51617;BME280;37697;52.588;13.394;2023-05-09T18:38:56;100962.08;;;16.42;35.50
51617;BME280;37697;52.588;13.394;2023-05-09T18:44:13;100961.28;;;16.34;35.81
51617;BME280;37697;52.588;13.394;2023-05-09T18:49:39;100967.63;;;16.25;35.88
51617;BME280;37697;52.588;13.394;2023-05-09T18:55:17;100967.39;;;16.14;36.06
51617;BME280;37697;52.588;13.394;2023-05-09T19:00:43;100962.52;;;16.03;36.20
51617;BME280;37697;52.588;13.394;2023-05-09T19:06:09;100962.54;;;15.92;36.51
51617;BME280;37697;52.588;13.394;2023-05-09T19:11:35;100960.96;;;15.80;36.72
51617;BME280;37697;52.588;13.394;2023-05-09T19:17:03;100967.02;;;15.67;37.06
51617;BME280;37697;52.588;13.394;2023-05-09T19:22:30;100965.63;;;15.54;37.24
51617;BME280;37697;52.588;13.394;2023-05-09T19:27:57;100963.44;;;15.44;37.41
51617;BME280;37697;52.588;13.394;2023-05-09T19:33:23;100959.48;;;15.33;37.56
51617;BME280;37697;52.588;13.394;2023-05-09T19:38:49;100953.66;;;15.25;37.68
51617;BME280;37697;52.588;13.394;2023-05-09T19:44:14;100954.59;;;15.15;37.85
51617;BME280;37697;52.588;13.394;2023-05-09T19:49:41;100945.64;;;15.04;38.10
51617;BME280;37697;52.588;13.394;2023-05-09T19:55:10;100941.93;;;14.95;38.23
51617;BME280;37697;52.588;13.394;2023-05-09T20:00:34;100945.70;;;14.86;38.39
51617;BME280;37697;52.588;13.394;2023-05-09T20:06:00;100948.27;;;14.78;38.42
51617;BME280;37697;52.588;13.394;2023-05-09T20:11:25;100945.61;;;14.71;38.43
51617;BME280;37697;52.588;13.394;2023-05-09T20:16:51;100940.02;;;14.62;38.75
51617;BME280;37697;52.588;13.394;2023-05-09T20:22:17;100940.38;;;14.53;38.71
51617;BME280;37697;52.588;13.394;2023-05-09T20:27:43;100933.34;;;14.46;38.91
51617;BME280;37697;52.588;13.394;2023-05-09T20:33:09;100924.45;;;14.39;38.88
51617;BME280;37697;52.588;13.394;2023-05-09T20:38:36;100924.39;;;14.33;39.05
51617;BME280;37697;52.588;13.394;2023-05-09T20:44:02;100916.89;;;14.24;39.37
51617;BME280;37697;52.588;13.394;2023-05-09T20:49:28;100907.61;;;14.16;39.66
51617;BME280;37697;52.588;13.394;2023-05-09T20:54:53;100905.01;;;14.09;39.76
51617;BME280;37697;52.588;13.394;2023-05-09T21:00:19;100898.83;;;14.00;39.89
51617;BME280;37697;52.588;13.394;2023-05-09T21:05:45;100891.39;;;13.93;40.05
51617;BME280;37697;52.588;13.394;2023-05-09T21:11:11;100884.79;;;13.88;40.47
51617;BME280;37697;52.588;13.394;2023-05-09T21:16:36;100879.46;;;13.80;40.59
51617;BME280;37697;52.588;13.394;2023-05-09T21:21:55;100875.61;;;13.73;40.91
51617;BME280;37697;52.588;13.394;2023-05-09T21:27:21;100870.60;;;13.66;41.17
51617;BME280;37697;52.588;13.394;2023-05-09T21:32:47;100863.27;;;13.59;41.59
51617;BME280;37697;52.588;13.394;2023-05-09T21:38:15;100859.05;;;13.52;41.93
51617;BME280;37697;52.588;13.394;2023-05-09T21:43:41;100859.91;;;13.46;42.05
51617;BME280;37697;52.588;13.394;2023-05-09T21:49:07;100855.95;;;13.39;42.17
51617;BME280;37697;52.588;13.394;2023-05-09T21:54:33;100855.77;;;13.33;42.62
51617;BME280;37697;52.588;13.394;2023-05-09T21:59:58;100850.12;;;13.27;43.00
51617;BME280;37697;52.588;13.394;2023-05-09T22:05:25;100851.33;;;13.21;43.22
51617;BME280;37697;52.588;13.394;2023-05-09T22:10:50;100848.08;;;13.15;43.54
51617;BME280;37697;52.588;13.394;2023-05-09T22:16:23;100847.82;;;13.08;43.85
51617;BME280;37697;52.588;13.394;2023-05-09T22:21:49;100846.91;;;13.03;43.88
51617;BME280;37697;52.588;13.394;2023-05-09T22:27:14;100842.17;;;12.98;44.24
51617;BME280;37697;52.588;13.394;2023-05-09T22:32:40;100850.46;;;12.92;44.41
51617;BME280;37697;52.588;13.394;2023-05-09T22:38:06;100852.05;;;12.86;44.90
51617;BME280;37697;52.588;13.394;2023-05-09T22:43:24;100851.54;;;12.82;44.89
51617;BME280;37697;52.588;13.394;2023-05-09T22:48:50;100842.66;;;12.75;45.25
51617;BME280;37697;52.588;13.394;2023-05-09T22:54:16;100838.39;;;12.67;45.38
51617;BME280;37697;52.588;13.394;2023-05-09T22:59:45;100830.68;;;12.59;45.52
51617;BME280;37697;52.588;13.394;2023-05-09T23:05:10;100826.15;;;12.52;46.05
51617;BME280;37697;52.588;13.394;2023-05-09T23:10:36;100825.91;;;12.46;46.08
51617;BME280;37697;52.588;13.394;2023-05-09T23:16:02;100826.52;;;12.37;46.40
51617;BME280;37697;52.588;13.394;2023-05-09T23:21:28;100820.90;;;12.27;46.73
51617;BME280;37697;52.588;13.394;2023-05-09T23:26:54;100823.66;;;12.18;47.03
51617;BME280;37697;52.588;13.394;2023-05-09T23:32:20;100818.63;;;12.11;47.37
51617;BME280;37697;52.588;13.394;2023-05-09T23:37:45;100819.27;;;12.05;47.58
51617;BME280;37697;52.588;13.394;2023-05-09T23:43:11;100813.76;;;11.97;47.70
51617;BME280;37697;52.588;13.394;2023-05-09T23:48:37;100812.19;;;11.88;47.99
51617;BME280;37697;52.588;13.394;2023-05-09T23:54:03;100809.71;;;11.77;48.17
51617;BME280;37697;52.588;13.394;2023-05-09T23:59:29;100803.92;;;11.64;48.49
